sensor_id;sensor_type;location;lat;lon;timestamp;temperature;humidity
11965;DHT22;6042;41.326;19.826;2023-02-28T00:02:13;11.90;99.90
11965;DHT22;6042;41.326;19.826;2023-02-28T00:04:45;11.90;99.90
11965;DHT22;6042;41.326;19.826;2023-02-28T00:07:19;11.90;99.90
11965;DHT22;6042;41.326;19.826;2023-02-28T00:09:49;12.00;99.90
11965;DHT22;6042;41.326;19.826;2023-02-28T00:12:18;12.00;99.90
11965;DHT22;6042;41.326;19.826;2023-02-28T00:14:47;12.00;99.90
11965;DHT22;6042;41.326;19.826;2023-02-28T00:17:15;12.10;99.90
11965;DHT22;6042;41.326;19.826;2023-02-28T00:19:44;12.10;99.90
11965;DHT22;6042;41.326;19.826;2023-02-28T00:22:14;12.10;99.90
11965;DHT22;6042;41.326;19.826;2023-02-28T00:24:42;12.10;99.90
11965;DHT22;6042;41.326;19.826;2023-02-28T00:27:12;12.10;99.90
11965;DHT22;6042;41.326;19.826;2023-02-28T00:29:46;12.10;99.90
11965;DHT22;6042;41.326;19.826;2023-02-28T00:32:17;12.10;99.90
11965;DHT22;6042;41.326;19.826;2023-02-28T00:34:45;12.00;99.90
11965;DHT22;6042;41.326;19.826;2023-02-28T00:37:14;12.10;99.90
11965;DHT22;6042;41.326;19.826;2023-02-28T00:39:42;12.10;99.90
11965;DHT22;6042;41.326;19.826;2023-02-28T00:42:13;12.10;99.90
11965;DHT22;6042;41.326;19.826;2023-02-28T00:44:47;12.00;99.90
11965;DHT22;6042;41.326;19.826;2023-02-28T00:47:15;12.10;99.90
11965;DHT22;6042;41.326;19.826;2023-02-28T00:49:47;12.10;99.90
11965;DHT22;6042;41.326;19.826;2023-02-28T00:52:19;12.10;99.90
11965;DHT22;6042;41.326;19.826;2023-02-28T00:54:51;12.10;99.90
11965;DHT22;6042;41.326;19.826;2023-02-28T00:57:26;12.10;99.90
11965;DHT22;6042;41.326;19.826;2023-02-28T00:59:58;12.10;99.90
11965;DHT22;6042;41.326;19.826;2023-02-28T01:02:26;12.10;99.90
11965;DHT22;6042;41.326;19.826;2023-02-28T01:04:55;12.10;99.90
11965;DHT22;6042;41.326;19.826;2023-02-28T01:07:25;12.00;99.90
11965;DHT22;6042;41.326;19.826;2023-02-28T01:09:53;12.10;99.90
11965;DHT22;6042;41.326;19.826;2023-02-28T01:12:25;12.10;99.90
11965;DHT22;6042;41.326;19.826;2023-02-28T01:14:57;12.20;99.90
11965;DHT22;6042;41.326;19.826;2023-02-28T01:17:26;12.20;99.90
11965;DHT22;6042;41.326;19.826;2023-02-28T01:19:55;12.20;99.90
11965;DHT22;6042;41.326;19.826;2023-02-28T01:22:24;12.30;99.90
11965;DHT22;6042;41.326;19.826;2023-02-28T01:24:53;12.30;99.90
11965;DHT22;6042;41.326;19.826;2023-02-28T01:27:21;12.30;99.90
11965;DHT22;6042;41.326;19.826;2023-02-28T01:29:53;12.40;99.90
11965;DHT22;6042;41.326;19.826;2023-02-28T01:32:21;12.40;99.90
11965;DHT22;6042;41.326;19.826;2023-02-28T01:34:52;12.30;99.90
11965;DHT22;6042;41.326;19.826;2023-02-28T01:37:23;12.30;99.90
11965;DHT22;6042;41.326;19.826;2023-02-28T01:39:51;12.30;99.90
11965;DHT22;6042;41.326;19.826;2023-02-28T01:42:22;12.30;99.90
11965;DHT22;6042;41.326;19.826;2023-02-28T01:44:59;12.30;99.90
11965;DHT22;6042;41.326;19.826;2023-02-28T01:47:30;12.30;99.90
11965;DHT22;6042;41.326;19.826;2023-02-28T01:50:01;12.20;99.90
11965;DHT22;6042;41.326;19.826;2023-02-28T01:52:32;12.10;99.90
11965;DHT22;6042;41.326;19.826;2023-02-28T01:55:02;12.10;99.90
11965;DHT22;6042;41.326;19.826;2023-02-28T01:57:35;12.00;99.90
11965;DHT22;6042;41.326;19.826;2023-02-28T02:00:13;12.00;99.90
11965;DHT22;6042;41.326;19.826;2023-02-28T02:02:48;12.00;99.90
11965;DHT22;6042;41.326;19.826;2023-02-28T02:05:20;12.10;99.90
11965;DHT22;6042;41.326;19.826;2023-02-28T02:07:51;12.00;99.90
11965;DHT22;6042;41.326;19.826;2023-02-28T02:10:21;11.90;99.90
11965;DHT22;6042;41.326;19.826;2023-02-28T02:13:10;11.90;99.90
11965;DHT22;6042;41.326;19.826;2023-02-28T02:15:46;12.00;99.90
11965;DHT22;6042;41.326;19.826;2023-02-28T02:18:23;12.00;99.90
11965;DHT22;6042;41.326;19.826;2023-02-28T02:21:17;11.90;99.90
11965;DHT22;6042;41.326;19.826;2023-02-28T02:24:20;12.00;99.90
11965;DHT22;6042;41.326;19.826;2023-02-28T02:27:10;11.90;99.90
11965;DHT22;6042;41.326;19.826;2023-02-28T02:30:05;11.90;99.90
11965;DHT22;6042;41.326;19.826;2023-02-28T02:32:55;11.80;99.90
11965;DHT22;6042;41.326;19.826;2023-02-28T02:35:30;11.90;99.90
11965;DHT22;6042;41.326;19.826;2023-02-28T02:38:08;11.90;99.90
11965;DHT22;6042;41.326;19.826;2023-02-28T02:40:43;11.90;99.90
11965;DHT22;6042;41.326;19.826;2023-02-28T02:43:17;11.80;99.90
11965;DHT22;6042;41.326;19.826;2023-02-28T02:45:51;11.80;99.90
11965;DHT22;6042;41.326;19.826;2023-02-28T02:48:24;11.70;99.90
11965;DHT22;6042;41.326;19.826;2023-02-28T02:50:57;11.70;99.90
11965;DHT22;6042;41.326;19.826;2023-02-28T02:53:30;11.80;99.90
11965;DHT22;6042;41.326;19.826;2023-02-28T02:56:01;11.70;99.90
11965;DHT22;6042;41.326;19.826;2023-02-28T02:58:34;11.60;99.90
11965;DHT22;6042;41.326;19.826;2023-02-28T03:01:04;11.60;99.90
11965;DHT22;6042;41.326;19.826;2023-02-28T03:03:33;11.80;99.90
11965;DHT22;6042;41.326;19.826;2023-02-28T03:06:04;11.90;99.90
11965;DHT22;6042;41.326;19.826;2023-02-28T03:08:35;12.00;99.90
11965;DHT22;6042;41.326;19.826;2023-02-28T03:11:05;12.00;99.90
11965;DHT22;6042;41.326;19.826;2023-02-28T03:13:55;12.10;99.90
11965;DHT22;6042;41.326;19.826;2023-02-28T03:16:36;12.10;99.90
11965;DHT22;6042;41.326;19.826;2023-02-28T03:19:21;12.10;99.90
11965;DHT22;6042;41.326;19.826;2023-02-28T03:22:09;12.00;99.90
11965;DHT22;6042;41.326;19.826;2023-02-28T03:24:44;11.90;99.90
11965;DHT22;6042;41.326;19.826;2023-02-28T03:27:17;11.80;99.90
11965;DHT22;6042;41.326;19.826;2023-02-28T03:29:50;11.80;99.90
11965;DHT22;6042;41.326;19.826;2023-02-28T03:32:24;11.70;99.90
11965;DHT22;6042;41.326;19.826;2023-02-28T03:34:58;11.70;99.90
11965;DHT22;6042;41.326;19.826;2023-02-28T03:37:33;11.60;99.90
11965;DHT22;6042;41.326;19.826;2023-02-28T03:40:09;11.70;99.90
11965;DHT22;6042;41.326;19.826;2023-02-28T03:42:42;11.70;99.90
11965;DHT22;6042;41.326;19.826;2023-02-28T03:45:15;11.60;99.90
11965;DHT22;6042;41.326;19.826;2023-02-28T03:47:49;11.50;99.90
11965;DHT22;6042;41.326;19.826;2023-02-28T03:50:22;11.50;99.90
11965;DHT22;6042;41.326;19.826;2023-02-28T03:52:58;11.40;99.90
11965;DHT22;6042;41.326;19.826;2023-02-28T03:55:39;11.40;99.90
11965;DHT22;6042;41.326;19.826;2023-02-28T03:58:15;11.40;99.90
11965;DHT22;6042;41.326;19.826;2023-02-28T04:00:49;11.30;99.90
11965;DHT22;6042;41.326;19.826;2023-02-28T04:03:19;11.30;99.90
11965;DHT22;6042;41.326;19.826;2023-02-28T04:05:50;11.30;99.90
11965;DHT22;6042;41.326;19.826;2023-02-28T04:08:22;11.40;99.90
11965;DHT22;6042;41.326;19.826;2023-02-28T04:10:55;11.40;99.90
11965;DHT22;6042;41.326;19.826;2023-02-28T04:13:25;11.40;99.90
11965;DHT22;6042;41.326;19.826;2023-02-28T04:15:53;11.20;99.90
11965;DHT22;6042;41.326;19.826;2023-02-28T04:18:22;11.20;99.90
11965;DHT22;6042;41.326;19.826;2023-02-28T04:20:50;11.20;99.90
11965;DHT22;6042;41.326;19.826;2023-02-28T04:23:19;11.20;99.90
11965;DHT22;6042;41.326;19.826;2023-02-28T04:25:48;11.20;99.90
11965;DHT22;6042;41.326;19.826;2023-02-28T04:28:18;11.10;99.90
11965;DHT22;6042;41.326;19.826;2023-02-28T04:30:46;11.10;99.90
11965;DHT22;6042;41.326;19.826;2023-02-28T04:33:15;11.10;99.90
11965;DHT22;6042;41.326;19.826;2023-02-28T04:35:43;11.10;99.90
11965;DHT22;6042;41.326;19.826;2023-02-28T04:38:12;11.10;99.90
11965;DHT22;6042;41.326;19.826;2023-02-28T04:40:40;11.20;99.90
11965;DHT22;6042;41.326;19.826;2023-02-28T04:43:10;11.10;99.90
11965;DHT22;6042;41.326;19.826;2023-02-28T04:45:38;11.10;99.90
11965;DHT22;6042;41.326;19.826;2023-02-28T04:48:07;11.10;99.90
11965;DHT22;6042;41.326;19.826;2023-02-28T04:50:35;11.00;99.90
11965;DHT22;6042;41.326;19.826;2023-02-28T04:53:03;11.10;99.90
11965;DHT22;6042;41.326;19.826;2023-02-28T04:55:32;11.10;99.90
11965;DHT22;6042;41.326;19.826;2023-02-28T04:58:00;11.10;99.90
11965;DHT22;6042;41.326;19.826;2023-02-28T05:00:31;11.00;99.90
11965;DHT22;6042;41.326;19.826;2023-02-28T05:03:00;11.00;99.90
11965;DHT22;6042;41.326;19.826;2023-02-28T05:05:29;11.10;99.90
11965;DHT22;6042;41.326;19.826;2023-02-28T05:07:57;11.10;99.90
11965;DHT22;6042;41.326;19.826;2023-02-28T05:10:26;11.10;99.90
11965;DHT22;6042;41.326;19.826;2023-02-28T05:12:54;11.10;99.90
11965;DHT22;6042;41.326;19.826;2023-02-28T05:15:23;11.20;99.90
11965;DHT22;6042;41.326;19.826;2023-02-28T05:17:53;11.20;99.90
11965;DHT22;6042;41.326;19.826;2023-02-28T05:20:21;11.20;99.90
11965;DHT22;6042;41.326;19.826;2023-02-28T05:22:50;11.30;99.90
11965;DHT22;6042;41.326;19.826;2023-02-28T05:25:21;11.20;99.90
11965;DHT22;6042;41.326;19.826;2023-02-28T05:27:49;11.20;99.90
11965;DHT22;6042;41.326;19.826;2023-02-28T05:30:18;11.20;99.90
11965;DHT22;6042;41.326;19.826;2023-02-28T05:32:50;11.30;99.90
11965;DHT22;6042;41.326;19.826;2023-02-28T05:35:20;11.40;99.90
11965;DHT22;6042;41.326;19.826;2023-02-28T05:37:48;11.40;99.90
11965;DHT22;6042;41.326;19.826;2023-02-28T05:40:17;11.40;99.90
11965;DHT22;6042;41.326;19.826;2023-02-28T05:42:47;11.40;99.90
11965;DHT22;6042;41.326;19.826;2023-02-28T05:45:15;11.40;99.90
11965;DHT22;6042;41.326;19.826;2023-02-28T05:47:44;11.30;99.90
11965;DHT22;6042;41.326;19.826;2023-02-28T05:50:12;11.30;99.90
11965;DHT22;6042;41.326;19.826;2023-02-28T05:52:42;11.20;99.90
11965;DHT22;6042;41.326;19.826;2023-02-28T05:55:10;11.20;99.90
11965;DHT22;6042;41.326;19.826;2023-02-28T05:57:39;11.20;99.90
11965;DHT22;6042;41.326;19.826;2023-02-28T06:00:08;11.20;99.90
11965;DHT22;6042;41.326;19.826;2023-02-28T06:02:40;11.30;99.90
11965;DHT22;6042;41.326;19.826;2023-02-28T06:05:13;11.30;99.90
11965;DHT22;6042;41.326;19.826;2023-02-28T06:07:44;11.40;99.90
11965;DHT22;6042;41.326;19.826;2023-02-28T06:10:13;11.50;99.90
11965;DHT22;6042;41.326;19.826;2023-02-28T06:12:42;11.50;99.90
11965;DHT22;6042;41.326;19.826;2023-02-28T06:15:12;11.60;99.90
11965;DHT22;6042;41.326;19.826;2023-02-28T06:17:41;11.70;99.90
11965;DHT22;6042;41.326;19.826;2023-02-28T06:20:11;11.70;99.90
11965;DHT22;6042;41.326;19.826;2023-02-28T06:22:40;11.70;99.90
11965;DHT22;6042;41.326;19.826;2023-02-28T06:25:11;11.70;99.90
11965;DHT22;6042;41.326;19.826;2023-02-28T06:27:40;11.80;99.90
11965;DHT22;6042;41.326;19.826;2023-02-28T06:30:09;11.80;99.90
11965;DHT22;6042;41.326;19.826;2023-02-28T06:32:38;11.80;99.90
11965;DHT22;6042;41.326;19.826;2023-02-28T06:35:07;11.90;99.90
11965;DHT22;6042;41.326;19.826;2023-02-28T06:37:35;11.80;99.90
11965;DHT22;6042;41.326;19.826;2023-02-28T06:40:08;11.90;99.90
11965;DHT22;6042;41.326;19.826;2023-02-28T06:42:39;12.00;99.90
11965;DHT22;6042;41.326;19.826;2023-02-28T06:45:08;11.80;99.90
11965;DHT22;6042;41.326;19.826;2023-02-28T06:47:37;11.80;99.90
11965;DHT22;6042;41.326;19.826;2023-02-28T06:50:08;11.80;99.90
11965;DHT22;6042;41.326;19.826;2023-02-28T06:52:37;11.90;99.90
11965;DHT22;6042;41.326;19.826;2023-02-28T06:55:07;12.10;99.90
11965;DHT22;6042;41.326;19.826;2023-02-28T06:57:37;12.20;99.90
11965;DHT22;6042;41.326;19.826;2023-02-28T07:00:08;12.30;99.90
11965;DHT22;6042;41.326;19.826;2023-02-28T07:02:37;12.30;99.90
11965;DHT22;6042;41.326;19.826;2023-02-28T07:05:06;12.40;99.90
11965;DHT22;6042;41.326;19.826;2023-02-28T07:07:34;12.40;99.90
11965;DHT22;6042;41.326;19.826;2023-02-28T07:10:05;12.60;99.90
11965;DHT22;6042;41.326;19.826;2023-02-28T07:12:34;12.70;99.90
11965;DHT22;6042;41.326;19.826;2023-02-28T07:15:07;12.80;99.90
11965;DHT22;6042;41.326;19.826;2023-02-28T07:17:36;12.90;99.90
11965;DHT22;6042;41.326;19.826;2023-02-28T07:20:05;13.00;99.90
11965;DHT22;6042;41.326;19.826;2023-02-28T07:22:35;13.10;99.90
11965;DHT22;6042;41.326;19.826;2023-02-28T07:25:03;12.90;99.90
11965;DHT22;6042;41.326;19.826;2023-02-28T07:27:32;13.00;99.90
11965;DHT22;6042;41.326;19.826;2023-02-28T07:30:01;13.10;99.90
11965;DHT22;6042;41.326;19.826;2023-02-28T07:32:31;13.30;99.90
11965;DHT22;6042;41.326;19.826;2023-02-28T07:35:00;13.40;99.90
11965;DHT22;6042;41.326;19.826;2023-02-28T07:37:28;13.60;99.90
11965;DHT22;6042;41.326;19.826;2023-02-28T07:39:58;13.80;99.90
11965;DHT22;6042;41.326;19.826;2023-02-28T07:42:26;13.90;99.90
11965;DHT22;6042;41.326;19.826;2023-02-28T07:44:55;14.00;99.90
11965;DHT22;6042;41.326;19.826;2023-02-28T07:47:23;14.10;99.90
11965;DHT22;6042;41.326;19.826;2023-02-28T07:49:53;14.10;99.90
11965;DHT22;6042;41.326;19.826;2023-02-28T07:52:21;14.20;99.90
11965;DHT22;6042;41.326;19.826;2023-02-28T07:54:50;14.20;99.90
11965;DHT22;6042;41.326;19.826;2023-02-28T07:57:19;14.10;99.90
11965;DHT22;6042;41.326;19.826;2023-02-28T07:59:47;14.00;99.90
11965;DHT22;6042;41.326;19.826;2023-02-28T08:02:17;14.20;99.90
11965;DHT22;6042;41.326;19.826;2023-02-28T08:04:45;14.40;99.90
11965;DHT22;6042;41.326;19.826;2023-02-28T08:07:21;14.50;99.90
11965;DHT22;6042;41.326;19.826;2023-02-28T08:09:53;14.60;99.90
11965;DHT22;6042;41.326;19.826;2023-02-28T08:12:22;14.70;99.90
11965;DHT22;6042;41.326;19.826;2023-02-28T08:14:50;14.70;99.90
11965;DHT22;6042;41.326;19.826;2023-02-28T08:17:19;14.70;99.90
11965;DHT22;6042;41.326;19.826;2023-02-28T08:19:50;14.70;99.90
11965;DHT22;6042;41.326;19.826;2023-02-28T08:22:19;14.70;99.90
11965;DHT22;6042;41.326;19.826;2023-02-28T08:24:49;14.60;99.90
11965;DHT22;6042;41.326;19.826;2023-02-28T08:27:17;14.50;99.90
11965;DHT22;6042;41.326;19.826;2023-02-28T08:29:46;14.60;99.90
11965;DHT22;6042;41.326;19.826;2023-02-28T08:32:14;14.60;99.90
11965;DHT22;6042;41.326;19.826;2023-02-28T08:34:56;14.60;99.90
11965;DHT22;6042;41.326;19.826;2023-02-28T08:37:27;14.60;99.90
11965;DHT22;6042;41.326;19.826;2023-02-28T08:40:00;14.70;99.90
11965;DHT22;6042;41.326;19.826;2023-02-28T08:42:32;14.80;99.90
11965;DHT22;6042;41.326;19.826;2023-02-28T08:45:00;14.80;99.90
11965;DHT22;6042;41.326;19.826;2023-02-28T08:47:41;14.90;99.90
11965;DHT22;6042;41.326;19.826;2023-02-28T08:50:10;14.90;99.90
11965;DHT22;6042;41.326;19.826;2023-02-28T08:52:44;15.00;99.90
11965;DHT22;6042;41.326;19.826;2023-02-28T08:55:12;15.10;99.90
11965;DHT22;6042;41.326;19.826;2023-02-28T08:57:40;15.10;99.90
11965;DHT22;6042;41.326;19.826;2023-02-28T09:00:10;15.20;99.90
11965;DHT22;6042;41.326;19.826;2023-02-28T09:02:40;15.30;99.90
11965;DHT22;6042;41.326;19.826;2023-02-28T09:05:10;15.30;99.90
11965;DHT22;6042;41.326;19.826;2023-02-28T09:07:38;15.40;99.90
11965;DHT22;6042;41.326;19.826;2023-02-28T09:10:09;15.40;99.90
11965;DHT22;6042;41.326;19.826;2023-02-28T09:12:38;15.50;99.90
11965;DHT22;6042;41.326;19.826;2023-02-28T09:15:07;15.70;99.90
11965;DHT22;6042;41.326;19.826;2023-02-28T09:17:37;15.80;99.90
11965;DHT22;6042;41.326;19.826;2023-02-28T09:20:06;16.00;99.90
11965;DHT22;6042;41.326;19.826;2023-02-28T09:22:36;16.00;99.90
11965;DHT22;6042;41.326;19.826;2023-02-28T09:25:05;16.00;99.90
11965;DHT22;6042;41.326;19.826;2023-02-28T09:27:36;16.10;99.90
11965;DHT22;6042;41.326;19.826;2023-02-28T09:30:05;16.20;99.90
11965;DHT22;6042;41.326;19.826;2023-02-28T09:32:34;16.30;99.90
11965;DHT22;6042;41.326;19.826;2023-02-28T09:35:03;16.40;99.90
11965;DHT22;6042;41.326;19.826;2023-02-28T09:37:31;16.50;99.90
11965;DHT22;6042;41.326;19.826;2023-02-28T09:40:00;16.60;99.90
11965;DHT22;6042;41.326;19.826;2023-02-28T09:42:32;16.60;99.10
11965;DHT22;6042;41.326;19.826;2023-02-28T09:45:15;16.70;99.00
11965;DHT22;6042;41.326;19.826;2023-02-28T09:47:47;16.80;98.60
11965;DHT22;6042;41.326;19.826;2023-02-28T09:50:28;16.80;98.30
11965;DHT22;6042;41.326;19.826;2023-02-28T09:52:57;16.90;97.80
11965;DHT22;6042;41.326;19.826;2023-02-28T09:55:30;17.00;97.40
11965;DHT22;6042;41.326;19.826;2023-02-28T09:58:18;17.10;97.10
11965;DHT22;6042;41.326;19.826;2023-02-28T10:00:56;17.20;96.60
11965;DHT22;6042;41.326;19.826;2023-02-28T10:03:31;17.30;95.90
11965;DHT22;6042;41.326;19.826;2023-02-28T10:06:09;17.30;96.00
11965;DHT22;6042;41.326;19.826;2023-02-28T10:08:45;17.50;95.70
11965;DHT22;6042;41.326;19.826;2023-02-28T10:11:18;17.50;95.10
11965;DHT22;6042;41.326;19.826;2023-02-28T10:13:53;17.50;94.40
11965;DHT22;6042;41.326;19.826;2023-02-28T10:16:29;17.50;95.80
11965;DHT22;6042;41.326;19.826;2023-02-28T10:19:03;17.60;95.90
11965;DHT22;6042;41.326;19.826;2023-02-28T10:21:36;17.70;95.70
11965;DHT22;6042;41.326;19.826;2023-02-28T10:24:18;17.70;95.70
11965;DHT22;6042;41.326;19.826;2023-02-28T10:26:48;17.80;95.40
11965;DHT22;6042;41.326;19.826;2023-02-28T10:29:20;17.90;95.40
11965;DHT22;6042;41.326;19.826;2023-02-28T10:31:50;17.90;94.90
11965;DHT22;6042;41.326;19.826;2023-02-28T10:34:19;17.90;95.20
11965;DHT22;6042;41.326;19.826;2023-02-28T10:36:55;18.00;94.40
11965;DHT22;6042;41.326;19.826;2023-02-28T10:39:36;18.20;94.60
11965;DHT22;6042;41.326;19.826;2023-02-28T10:42:20;18.40;94.60
11965;DHT22;6042;41.326;19.826;2023-02-28T10:44:48;18.40;94.20
11965;DHT22;6042;41.326;19.826;2023-02-28T10:47:20;18.40;94.00
11965;DHT22;6042;41.326;19.826;2023-02-28T10:49:51;18.40;94.60
11965;DHT22;6042;41.326;19.826;2023-02-28T10:52:33;18.60;94.10
11965;DHT22;6042;41.326;19.826;2023-02-28T10:55:18;18.70;94.10
11965;DHT22;6042;41.326;19.826;2023-02-28T10:57:49;18.70;93.90
11965;DHT22;6042;41.326;19.826;2023-02-28T11:00:20;18.80;93.60
11965;DHT22;6042;41.326;19.826;2023-02-28T11:02:50;18.90;93.30
11965;DHT22;6042;41.326;19.826;2023-02-28T11:05:28;19.00;93.70
11965;DHT22;6042;41.326;19.826;2023-02-28T11:08:02;19.20;93.00
11965;DHT22;6042;41.326;19.826;2023-02-28T11:10:32;19.30;92.80
11965;DHT22;6042;41.326;19.826;2023-02-28T11:13:02;19.30;92.80
11965;DHT22;6042;41.326;19.826;2023-02-28T11:15:33;19.40;92.50
11965;DHT22;6042;41.326;19.826;2023-02-28T11:18:19;19.60;92.50
11965;DHT22;6042;41.326;19.826;2023-02-28T11:20:51;19.60;92.70
11965;DHT22;6042;41.326;19.826;2023-02-28T11:23:25;19.90;92.20
11965;DHT22;6042;41.326;19.826;2023-02-28T11:25:59;20.20;91.10
11965;DHT22;6042;41.326;19.826;2023-02-28T11:28:30;20.40;91.10
11965;DHT22;6042;41.326;19.826;2023-02-28T11:31:09;20.50;90.90
11965;DHT22;6042;41.326;19.826;2023-02-28T11:33:50;20.60;90.40
11965;DHT22;6042;41.326;19.826;2023-02-28T11:36:20;20.40;90.50
11965;DHT22;6042;41.326;19.826;2023-02-28T11:38:52;20.20;90.10
11965;DHT22;6042;41.326;19.826;2023-02-28T11:41:43;20.30;90.50
11965;DHT22;6042;41.326;19.826;2023-02-28T11:44:27;20.60;90.50
11965;DHT22;6042;41.326;19.826;2023-02-28T11:47:05;20.70;90.20
11965;DHT22;6042;41.326;19.826;2023-02-28T11:49:42;20.90;90.10
11965;DHT22;6042;41.326;19.826;2023-02-28T11:52:20;20.90;88.80
11965;DHT22;6042;41.326;19.826;2023-02-28T11:55:03;20.80;89.50
11965;DHT22;6042;41.326;19.826;2023-02-28T11:57:49;21.10;88.90
11965;DHT22;6042;41.326;19.826;2023-02-28T12:00:35;21.30;88.00
11965;DHT22;6042;41.326;19.826;2023-02-28T12:03:16;21.30;88.70
11965;DHT22;6042;41.326;19.826;2023-02-28T12:05:52;21.20;88.80
11965;DHT22;6042;41.326;19.826;2023-02-28T12:08:31;21.10;88.30
11965;DHT22;6042;41.326;19.826;2023-02-28T12:11:11;21.10;88.60
11965;DHT22;6042;41.326;19.826;2023-02-28T12:13:50;21.20;87.50
11965;DHT22;6042;41.326;19.826;2023-02-28T12:16:41;21.30;86.70
11965;DHT22;6042;41.326;19.826;2023-02-28T12:19:20;21.10;86.70
11965;DHT22;6042;41.326;19.826;2023-02-28T12:22:12;21.00;87.60
11965;DHT22;6042;41.326;19.826;2023-02-28T12:24:54;21.30;86.80
11965;DHT22;6042;41.326;19.826;2023-02-28T12:27:28;21.30;85.10
11965;DHT22;6042;41.326;19.826;2023-02-28T12:30:02;21.20;85.60
11965;DHT22;6042;41.326;19.826;2023-02-28T12:32:33;21.20;85.80
11965;DHT22;6042;41.326;19.826;2023-02-28T12:35:11;21.30;85.30
11965;DHT22;6042;41.326;19.826;2023-02-28T12:37:45;21.40;85.30
11965;DHT22;6042;41.326;19.826;2023-02-28T12:40:19;21.60;85.40
11965;DHT22;6042;41.326;19.826;2023-02-28T12:42:51;21.70;85.70
11965;DHT22;6042;41.326;19.826;2023-02-28T12:45:22;21.40;84.50
11965;DHT22;6042;41.326;19.826;2023-02-28T12:47:56;21.80;84.30
11965;DHT22;6042;41.326;19.826;2023-02-28T12:50:25;22.00;83.80
11965;DHT22;6042;41.326;19.826;2023-02-28T12:53:00;22.30;83.60
11965;DHT22;6042;41.326;19.826;2023-02-28T12:55:37;22.50;82.00
11965;DHT22;6042;41.326;19.826;2023-02-28T12:58:12;22.80;80.40
11965;DHT22;6042;41.326;19.826;2023-02-28T13:00:56;22.80;80.80
11965;DHT22;6042;41.326;19.826;2023-02-28T13:06:41;23.70;76.90
11965;DHT22;6042;41.326;19.826;2023-02-28T13:09:14;23.70;76.90
11965;DHT22;6042;41.326;19.826;2023-02-28T13:11:45;23.60;71.90
11965;DHT22;6042;41.326;19.826;2023-02-28T13:14:22;23.30;72.80
11965;DHT22;6042;41.326;19.826;2023-02-28T13:17:00;23.20;73.50
11965;DHT22;6042;41.326;19.826;2023-02-28T13:19:31;23.30;73.10
11965;DHT22;6042;41.326;19.826;2023-02-28T13:22:01;24.10;72.20
11965;DHT22;6042;41.326;19.826;2023-02-28T13:24:43;25.50;68.00
11965;DHT22;6042;41.326;19.826;2023-02-28T13:27:36;27.10;63.30
11965;DHT22;6042;41.326;19.826;2023-02-28T13:33:29;27.30;59.10
11965;DHT22;6042;41.326;19.826;2023-02-28T13:36:12;28.20;57.50
11965;DHT22;6042;41.326;19.826;2023-02-28T13:38:51;29.40;55.30
11965;DHT22;6042;41.326;19.826;2023-02-28T13:41:47;30.30;51.60
11965;DHT22;6042;41.326;19.826;2023-02-28T13:44:18;29.10;52.40
11965;DHT22;6042;41.326;19.826;2023-02-28T13:47:25;28.90;52.90
11965;DHT22;6042;41.326;19.826;2023-02-28T13:50:21;29.40;49.40
11965;DHT22;6042;41.326;19.826;2023-02-28T13:53:03;28.30;52.10
11965;DHT22;6042;41.326;19.826;2023-02-28T13:55:46;28.40;52.70
11965;DHT22;6042;41.326;19.826;2023-02-28T13:58:33;28.20;53.10
11965;DHT22;6042;41.326;19.826;2023-02-28T14:01:28;28.30;53.10
11965;DHT22;6042;41.326;19.826;2023-02-28T14:04:21;27.30;53.60
11965;DHT22;6042;41.326;19.826;2023-02-28T14:06:55;26.70;54.70
11965;DHT22;6042;41.326;19.826;2023-02-28T14:09:28;25.90;55.00
11965;DHT22;6042;41.326;19.826;2023-02-28T14:15:27;24.20;58.70
11965;DHT22;6042;41.326;19.826;2023-02-28T14:17:57;23.40;61.30
11965;DHT22;6042;41.326;19.826;2023-02-28T14:20:30;22.70;63.50
11965;DHT22;6042;41.326;19.826;2023-02-28T14:23:04;22.30;64.20
11965;DHT22;6042;41.326;19.826;2023-02-28T14:25:37;21.80;65.30
11965;DHT22;6042;41.326;19.826;2023-02-28T14:28:14;21.80;65.10
11965;DHT22;6042;41.326;19.826;2023-02-28T14:31:00;21.80;65.60
11965;DHT22;6042;41.326;19.826;2023-02-28T14:33:40;21.70;66.00
11965;DHT22;6042;41.326;19.826;2023-02-28T14:36:16;21.40;66.50
11965;DHT22;6042;41.326;19.826;2023-02-28T14:38:48;21.20;67.60
11965;DHT22;6042;41.326;19.826;2023-02-28T14:41:23;21.20;68.60
11965;DHT22;6042;41.326;19.826;2023-02-28T14:43:54;21.20;70.70
11965;DHT22;6042;41.326;19.826;2023-02-28T14:46:28;21.10;73.30
11965;DHT22;6042;41.326;19.826;2023-02-28T14:48:58;20.80;74.00
11965;DHT22;6042;41.326;19.826;2023-02-28T14:51:27;20.50;75.60
11965;DHT22;6042;41.326;19.826;2023-02-28T14:53:59;20.30;76.20
11965;DHT22;6042;41.326;19.826;2023-02-28T14:56:34;20.30;76.10
11965;DHT22;6042;41.326;19.826;2023-02-28T14:59:04;20.30;76.80
11965;DHT22;6042;41.326;19.826;2023-02-28T15:01:34;20.20;77.80
11965;DHT22;6042;41.326;19.826;2023-02-28T15:04:05;20.20;78.70
11965;DHT22;6042;41.326;19.826;2023-02-28T15:06:33;20.10;79.30
11965;DHT22;6042;41.326;19.826;2023-02-28T15:09:15;20.00;80.50
11965;DHT22;6042;41.326;19.826;2023-02-28T15:11:47;20.00;81.30
11965;DHT22;6042;41.326;19.826;2023-02-28T15:14:19;19.80;82.30
11965;DHT22;6042;41.326;19.826;2023-02-28T15:16:55;19.70;82.70
11965;DHT22;6042;41.326;19.826;2023-02-28T15:19:26;19.70;83.60
11965;DHT22;6042;41.326;19.826;2023-02-28T15:22:00;19.60;84.70
11965;DHT22;6042;41.326;19.826;2023-02-28T15:24:36;19.50;85.90
11965;DHT22;6042;41.326;19.826;2023-02-28T15:27:09;19.50;87.80
11965;DHT22;6042;41.326;19.826;2023-02-28T15:29:45;19.50;88.80
11965;DHT22;6042;41.326;19.826;2023-02-28T15:32:25;19.40;90.20
11965;DHT22;6042;41.326;19.826;2023-02-28T15:34:58;19.20;91.00
11965;DHT22;6042;41.326;19.826;2023-02-28T15:37:40;19.10;91.50
11965;DHT22;6042;41.326;19.826;2023-02-28T15:40:22;18.90;92.10
11965;DHT22;6042;41.326;19.826;2023-02-28T15:43:03;18.80;92.40
11965;DHT22;6042;41.326;19.826;2023-02-28T15:45:34;18.70;92.60
11965;DHT22;6042;41.326;19.826;2023-02-28T15:48:14;18.70;92.40
11965;DHT22;6042;41.326;19.826;2023-02-28T15:50:44;18.70;92.70
11965;DHT22;6042;41.326;19.826;2023-02-28T15:53:17;18.40;93.10
11965;DHT22;6042;41.326;19.826;2023-02-28T15:55:53;18.30;93.30
11965;DHT22;6042;41.326;19.826;2023-02-28T15:58:22;18.30;93.60
11965;DHT22;6042;41.326;19.826;2023-02-28T16:01:06;18.20;93.90
11965;DHT22;6042;41.326;19.826;2023-02-28T16:03:44;18.20;94.10
11965;DHT22;6042;41.326;19.826;2023-02-28T16:06:33;18.10;94.50
11965;DHT22;6042;41.326;19.826;2023-02-28T16:09:03;18.10;95.00
11965;DHT22;6042;41.326;19.826;2023-02-28T16:11:33;17.90;95.50
11965;DHT22;6042;41.326;19.826;2023-02-28T16:14:03;17.90;95.90
11965;DHT22;6042;41.326;19.826;2023-02-28T16:16:33;17.90;96.20
11965;DHT22;6042;41.326;19.826;2023-02-28T16:19:03;17.90;96.60